Medicine Hat Airport, Alberta

Past 24 Hour Conditions

This table is a summary of hourly weather conditions for the past 24 hours. This summary includes the following parameters: temperature, humidity, dew point, wind speed and direction, air pressure, visibility and/or wind chill and humidex.
Date / Time
(MDT)
Conditions Temp (°F) Humidity (%) Dew Point (°F) Wind (mph) Pressure (inches) Vis (mi) Humidex
25 July 2014
00:00 Clear 55   62 42 SW 15 gust 21 29.8 10 *
24 July 2014
23:00 Clear 56 60 42 SW 16 gust 22 29.8 10 *
22:00 Clear 58 56 42 SSW 15 gust 22 29.8 10 *
21:00 Mainly Sunny 62 44 40 SW 20 gust 28 29.8 30 *
20:00 Mainly Sunny 66 38 40 SW 20 gust 35 29.8 30 *
19:00 Partly Cloudy 68 31 37 WSW 30 gust 46 29.8 30 *
18:00 Partly Cloudy 69 31 37 SW 31 gust 43 29.8 30 *
17:00 Partly Cloudy 71   29 38 WSW 24 gust 35 29.8 30 *
16:00 Mostly Cloudy 67 37 40 SW 21 gust 30 29.8 15 *
15:00 N/A 60 54 44 SSW 26 gust 45 29.8 15 *
14:00 Thunderstorm 69 43 46 SW 21 gust 30 29.8 30 *
13:00 Mostly Cloudy 67 73 58 S 7 29.8 30 *
12:00 Thunderstorm with light rainshowers 61 81 55 SW 6 29.8 30 *
11:00 Light Rainshower 66 75 58 SW 9 29.8 30 *
10:00 Mostly Cloudy 71   55 54 WSW 13 29.8 30 *
9:00 Mostly Cloudy 67 82 62 SSW 8 29.8 30 *
8:00 Partly Cloudy 64 91 61 SW 8 29.8 30 *
7:00 Partly Cloudy 64 91 61 SW 6 29.8 30 *
6:00 Mostly Cloudy 61 95 60 W 6 29.8 10 *
5:00 Mostly Cloudy 62 92 60 ESE 2 29.8 10 *
4:00 Mostly Cloudy 62 96 61 ESE 7 29.8 10 *
3:00 Partly Cloudy 62 95 60 E 6 29.8 10 *
2:00 N/A N/A N/A N/A N/A N/A N/A *
1:00 Rain 63 87 59 NW 18 gust 33 29.8 10 *
00:00 Clear 71   58 56 NNE 6 29.7 10 77
N/A
Not available
 ↑ 
Highest temperature
 ↓ 
Lowest temperature
*
Value not significant.

If you require additional historical weather information, please visit Climate Data Online.